Time;durP1;ratioP1;P1;durP2;ratioP2;P2;SDS_P1;SDS_P2;PMS_P1;PMS_P2;Temp;Humidity;BMP_temperature;BMP_pressure;BME280_temperature;BME280_humidity;BME280_pressure;Samples;Min_cycle;Max_cycle;Signal;HPM_P1;HPM_P2
2022/10/02 00:00:59;;;;;;;2.2;1;;;;;;;12.18;100;95655.54;;;;
2022/10/02 00:02:09;;;;;;;2.2;1;;;;;;;12.18;100;95655.54;;;;
2022/10/02 00:03:20;;;;;;;2.2;1;;;;;;;12.18;100;95655.54;;;;
2022/10/02 00:04:25;;;;;;;2.2;1;;;;;;;12.18;100;95655.54;;;;
2022/10/02 00:05:32;;;;;;;2.2;1;;;;;;;12.18;100;95655.54;;;;
2022/10/02 00:06:38;;;;;;;2.2;1;;;;;;;12.18;100;95655.54;;;;
2022/10/02 00:07:45;;;;;;;2.2;1;;;;;;;12.18;100;95655.54;;;;
2022/10/02 00:08:49;;;;;;;2.2;1;;;;;;;12.18;100;95655.54;;;;
2022/10/02 00:09:54;;;;;;;2.2;1;;;;;;;12.18;100;95655.54;;;;
2022/10/02 00:10:59;;;;;;;2.2;1;;;;;;;12.18;100;95655.54;;;;
2022/10/02 00:12:07;;;;;;;2.2;1;;;;;;;12.18;100;95655.54;;;;
2022/10/02 00:13:10;;;;;;;2.2;1;;;;;;;12.18;100;95655.54;;;;
2022/10/02 00:14:17;;;;;;;2.2;1;;;;;;;12.18;100;95655.54;;;;
2022/10/02 00:15:22;;;;;;;2.2;1;;;;;;;12.18;100;95655.54;;;;
2022/10/02 00:16:27;;;;;;;2.2;1;;;;;;;12.18;100;95655.54;;;;
2022/10/02 00:17:33;;;;;;;1.3;0.8;;;;;;;12.19;100;95661.66;;;;
2022/10/02 00:18:39;;;;;;;1.3;0.8;;;;;;;12.19;100;95661.66;;;;
2022/10/02 00:19:40;;;;;;;1.3;0.8;;;;;;;12.19;100;95661.66;;;;
2022/10/02 00:20:41;;;;;;;1.3;0.8;;;;;;;12.19;100;95661.66;;;;
2022/10/02 00:21:45;;;;;;;1.3;0.8;;;;;;;12.19;100;95661.66;;;;
2022/10/02 00:22:57;;;;;;;1.3;0.8;;;;;;;12.19;100;95661.66;;;;
2022/10/02 00:24:06;;;;;;;1.3;0.8;;;;;;;12.19;100;95661.66;;;;
2022/10/02 00:25:12;;;;;;;1.3;0.8;;;;;;;12.19;100;95661.66;;;;
2022/10/02 00:26:24;;;;;;;1.3;0.8;;;;;;;12.19;100;95661.66;;;;
2022/10/02 00:27:30;;;;;;;1.3;0.8;;;;;;;12.19;100;95661.66;;;;
2022/10/02 00:28:42;;;;;;;1.45;0.6;;;;;;;12.27;100;95679.02;;;;
2022/10/02 00:29:52;;;;;;;1.45;0.6;;;;;;;12.27;100;95679.02;;;;
2022/10/02 00:30:56;;;;;;;1.45;0.6;;;;;;;12.27;100;95679.02;;;;
2022/10/02 00:32:15;;;;;;;1.45;0.6;;;;;;;12.27;100;95679.02;;;;
2022/10/02 00:33:26;;;;;;;1.45;0.6;;;;;;;12.27;100;95679.02;;;;
2022/10/02 00:34:34;;;;;;;1.45;0.6;;;;;;;12.27;100;95679.02;;;;
2022/10/02 00:35:43;;;;;;;1.45;0.6;;;;;;;12.27;100;95679.02;;;;
2022/10/02 00:36:58;;;;;;;1.45;0.6;;;;;;;12.27;100;95679.02;;;;
2022/10/02 00:38:09;;;;;;;1.45;0.6;;;;;;;12.27;100;95679.02;;;;
2022/10/02 00:39:22;;;;;;;1.5;0.8;;;;;;;12.29;100;95691.56;;;;
2022/10/02 00:40:38;;;;;;;1.5;0.8;;;;;;;12.29;100;95691.56;;;;
2022/10/02 00:42:02;;;;;;;1.5;0.8;;;;;;;12.29;100;95691.56;;;;
2022/10/02 00:43:29;;;;;;;1.5;0.8;;;;;;;12.29;100;95691.56;;;;
2022/10/02 00:44:35;;;;;;;1.5;0.8;;;;;;;12.29;100;95691.56;;;;
2022/10/02 00:45:55;;;;;;;1.5;0.8;;;;;;;12.29;100;95691.56;;;;
2022/10/02 00:47:09;;;;;;;1.5;0.8;;;;;;;12.29;100;95691.56;;;;
2022/10/02 00:48:19;;;;;;;1.5;0.8;;;;;;;12.29;100;95691.56;;;;
2022/10/02 00:49:36;;;;;;;1.8;0.85;;;;;;;12.23;100;95716.27;;;;
2022/10/02 00:50:52;;;;;;;1.8;0.85;;;;;;;12.23;100;95716.27;;;;
2022/10/02 00:52:06;;;;;;;1.8;0.85;;;;;;;12.23;100;95716.27;;;;
2022/10/02 00:53:22;;;;;;;1.8;0.85;;;;;;;12.23;100;95716.27;;;;
2022/10/02 00:54:32;;;;;;;1.8;0.85;;;;;;;12.23;100;95716.27;;;;
2022/10/02 00:56:02;;;;;;;1.8;0.85;;;;;;;12.23;100;95716.27;;;;
2022/10/02 00:57:16;;;;;;;1.8;0.85;;;;;;;12.23;100;95716.27;;;;
2022/10/02 00:58:23;;;;;;;1.8;0.85;;;;;;;12.23;100;95716.27;;;;
2022/10/02 00:59:38;;;;;;;1.8;0.85;;;;;;;12.23;100;95716.27;;;;
2022/10/02 01:00:50;;;;;;;1.65;0.85;;;;;;;12.15;100;95717.42;;;;
2022/10/02 01:01:58;;;;;;;1.65;0.85;;;;;;;12.15;100;95717.42;;;;
2022/10/02 01:03:05;;;;;;;1.65;0.85;;;;;;;12.15;100;95717.42;;;;
2022/10/02 01:04:14;;;;;;;1.65;0.85;;;;;;;12.15;100;95717.42;;;;
2022/10/02 01:05:24;;;;;;;1.65;0.85;;;;;;;12.15;100;95717.42;;;;
2022/10/02 01:06:25;;;;;;;1.65;0.85;;;;;;;12.15;100;95717.42;;;;
2022/10/02 01:07:27;;;;;;;1.65;0.85;;;;;;;12.15;100;95717.42;;;;
2022/10/02 01:08:28;;;;;;;1.65;0.85;;;;;;;12.15;100;95717.42;;;;
2022/10/02 01:09:30;;;;;;;1.65;0.85;;;;;;;12.15;100;95717.42;;;;
2022/10/02 01:10:32;;;;;;;1.65;0.85;;;;;;;12.15;100;95717.42;;;;
2022/10/02 01:11:36;;;;;;;1.45;1;;;;;;;12.04;100;95693.73;;;;
2022/10/02 01:12:37;;;;;;;1.45;1;;;;;;;12.04;100;95693.73;;;;
2022/10/02 01:13:38;;;;;;;1.45;1;;;;;;;12.04;100;95693.73;;;;
2022/10/02 01:14:38;;;;;;;1.45;1;;;;;;;12.04;100;95693.73;;;;
2022/10/02 01:15:39;;;;;;;1.45;1;;;;;;;12.04;100;95693.73;;;;
2022/10/02 01:16:47;;;;;;;1.45;1;;;;;;;12.04;100;95693.73;;;;
2022/10/02 01:17:47;;;;;;;1.45;1;;;;;;;12.04;100;95693.73;;;;
2022/10/02 01:18:50;;;;;;;1.45;1;;;;;;;12.04;100;95693.73;;;;
2022/10/02 01:19:51;;;;;;;1.45;1;;;;;;;12.04;100;95693.73;;;;
2022/10/02 01:20:53;;;;;;;1.45;1;;;;;;;12.04;100;95693.73;;;;
2022/10/02 01:22:00;;;;;;;1.6;0.85;;;;;;;11.96;100;95701.51;;;;
2022/10/02 01:23:09;;;;;;;1.6;0.85;;;;;;;11.96;100;95701.51;;;;
2022/10/02 01:24:18;;;;;;;1.6;0.85;;;;;;;11.96;100;95701.51;;;;
2022/10/02 01:25:24;;;;;;;1.6;0.85;;;;;;;11.96;100;95701.51;;;;
2022/10/02 01:26:24;;;;;;;1.6;0.85;;;;;;;11.96;100;95701.51;;;;
2022/10/02 01:27:25;;;;;;;1.6;0.85;;;;;;;11.96;100;95701.51;;;;
2022/10/02 01:28:26;;;;;;;1.6;0.85;;;;;;;11.96;100;95701.51;;;;
2022/10/02 01:29:27;;;;;;;1.6;0.85;;;;;;;11.96;100;95701.51;;;;
2022/10/02 01:30:28;;;;;;;1.6;0.85;;;;;;;11.96;100;95701.51;;;;
2022/10/02 01:31:29;;;;;;;1.6;0.85;;;;;;;11.96;100;95701.51;;;;
2022/10/02 01:32:31;;;;;;;1.65;0.9;;;;;;;11.93;100;95710.8;;;;
2022/10/02 01:33:32;;;;;;;1.65;0.9;;;;;;;11.93;100;95710.8;;;;
2022/10/02 01:34:34;;;;;;;1.65;0.9;;;;;;;11.93;100;95710.8;;;;
2022/10/02 01:35:35;;;;;;;1.65;0.9;;;;;;;11.93;100;95710.8;;;;
2022/10/02 01:36:37;;;;;;;1.65;0.9;;;;;;;11.93;100;95710.8;;;;
2022/10/02 01:37:38;;;;;;;1.65;0.9;;;;;;;11.93;100;95710.8;;;;
2022/10/02 01:38:43;;;;;;;1.65;0.9;;;;;;;11.93;100;95710.8;;;;
2022/10/02 01:39:46;;;;;;;1.65;0.9;;;;;;;11.93;100;95710.8;;;;
2022/10/02 01:40:47;;;;;;;1.65;0.9;;;;;;;11.93;100;95710.8;;;;
2022/10/02 01:41:48;;;;;;;1.65;0.9;;;;;;;11.93;100;95710.8;;;;
2022/10/02 01:42:48;;;;;;;3.400001;0.75;;;;;;;11.92;100;95723.32;;;;
2022/10/02 01:43:50;;;;;;;3.400001;0.75;;;;;;;11.92;100;95723.32;;;;
2022/10/02 01:44:54;;;;;;;3.400001;0.75;;;;;;;11.92;100;95723.32;;;;
2022/10/02 01:45:55;;;;;;;3.400001;0.75;;;;;;;11.92;100;95723.32;;;;
2022/10/02 01:47:05;;;;;;;3.400001;0.75;;;;;;;11.92;100;95723.32;;;;
2022/10/02 01:48:09;;;;;;;3.400001;0.75;;;;;;;11.92;100;95723.32;;;;
2022/10/02 01:49:15;;;;;;;3.400001;0.75;;;;;;;11.92;100;95723.32;;;;
2022/10/02 01:50:35;;;;;;;3.400001;0.75;;;;;;;11.92;100;95723.32;;;;
2022/10/02 01:51:46;;;;;;;3.400001;0.75;;;;;;;11.92;100;95723.32;;;;
2022/10/02 01:53:13;;;;;;;3.400001;0.75;;;;;;;11.92;100;95723.32;;;;
2022/10/02 01:54:19;;;;;;;1.6;1;;;;;;;11.93;100;95708.15;;;;
2022/10/02 01:55:34;;;;;;;1.6;1;;;;;;;11.93;100;95708.15;;;;
2022/10/02 01:56:44;;;;;;;1.6;1;;;;;;;11.93;100;95708.15;;;;
2022/10/02 01:57:54;;;;;;;1.6;1;;;;;;;11.93;100;95708.15;;;;
2022/10/02 01:59:10;;;;;;;1.6;1;;;;;;;11.93;100;95708.15;;;;
2022/10/02 02:00:24;;;;;;;1.6;1;;;;;;;11.93;100;95708.15;;;;
2022/10/02 02:01:29;;;;;;;1.6;1;;;;;;;11.93;100;95708.15;;;;
2022/10/02 02:02:44;;;;;;;1.6;1;;;;;;;11.93;100;95708.15;;;;
2022/10/02 02:03:54;;;;;;;1.6;1;;;;;;;11.93;100;95708.15;;;;
2022/10/02 02:05:00;;;;;;;1.2;0.8;;;;;;;12.03;100;95704.02;;;;
2022/10/02 02:06:09;;;;;;;1.2;0.8;;;;;;;12.03;100;95704.02;;;;
2022/10/02 02:07:18;;;;;;;1.2;0.8;;;;;;;12.03;100;95704.02;;;;
2022/10/02 02:08:27;;;;;;;1.2;0.8;;;;;;;12.03;100;95704.02;;;;
2022/10/02 02:09:33;;;;;;;1.2;0.8;;;;;;;12.03;100;95704.02;;;;
2022/10/02 02:10:39;;;;;;;1.2;0.8;;;;;;;12.03;100;95704.02;;;;
2022/10/02 02:11:46;;;;;;;1.2;0.8;;;;;;;12.03;100;95704.02;;;;
2022/10/02 02:12:53;;;;;;;1.2;0.8;;;;;;;12.03;100;95704.02;;;;
2022/10/02 02:13:59;;;;;;;1.2;0.8;;;;;;;12.03;100;95704.02;;;;
2022/10/02 02:15:04;;;;;;;1.7;0.95;;;;;;;12.01;100;95721.95;;;;
2022/10/02 02:16:12;;;;;;;1.7;0.95;;;;;;;12.01;100;95721.95;;;;
2022/10/02 02:17:20;;;;;;;1.7;0.95;;;;;;;12.01;100;95721.95;;;;
2022/10/02 02:18:27;;;;;;;1.7;0.95;;;;;;;12.01;100;95721.95;;;;
2022/10/02 02:19:34;;;;;;;1.7;0.95;;;;;;;12.01;100;95721.95;;;;
2022/10/02 02:20:41;;;;;;;1.7;0.95;;;;;;;12.01;100;95721.95;;;;
2022/10/02 02:21:50;;;;;;;1.7;0.95;;;;;;;12.01;100;95721.95;;;;
2022/10/02 02:22:58;;;;;;;1.7;0.95;;;;;;;12.01;100;95721.95;;;;
2022/10/02 02:24:05;;;;;;;1.7;0.95;;;;;;;12.01;100;95721.95;;;;
2022/10/02 02:25:10;;;;;;;1.7;0.95;;;;;;;12.01;100;95721.95;;;;
2022/10/02 02:26:17;;;;;;;1.7;0.95;;;;;;;12.01;100;95721.95;;;;
2022/10/02 02:27:20;;;;;;;1.7;0.95;;;;;;;12.01;100;95721.95;;;;
2022/10/02 02:28:25;;;;;;;1.7;0.95;;;;;;;12.01;100;95721.95;;;;
2022/10/02 02:29:28;;;;;;;1.7;0.95;;;;;;;12.01;100;95721.95;;;;
2022/10/02 02:30:33;;;;;;;1.7;0.95;;;;;;;12.01;100;95721.95;;;;
2022/10/02 02:31:37;;;;;;;1.7;0.95;;;;;;;12.01;100;95721.95;;;;
2022/10/02 02:32:42;;;;;;;1.7;0.95;;;;;;;12.01;100;95721.95;;;;
2022/10/02 02:33:47;;;;;;;1.7;0.95;;;;;;;12.01;100;95721.95;;;;
2022/10/02 02:34:53;;;;;;;1.7;0.95;;;;;;;12.01;100;95721.95;;;;
2022/10/02 02:35:57;;;;;;;1.7;0.95;;;;;;;12.01;100;95721.95;;;;
2022/10/02 02:37:02;;;;;;;1.7;0.95;;;;;;;12.01;100;95721.95;;;;
2022/10/02 02:38:07;;;;;;;1.7;0.95;;;;;;;12.01;100;95721.95;;;;
2022/10/02 02:39:13;;;;;;;1.7;0.95;;;;;;;12.01;100;95721.95;;;;
2022/10/02 02:40:18;;;;;;;1.7;0.95;;;;;;;12.01;100;95721.95;;;;
2022/10/02 02:41:23;;;;;;;1.7;0.95;;;;;;;12.01;100;95721.95;;;;
2022/10/02 02:42:27;;;;;;;1.7;0.95;;;;;;;12.01;100;95721.95;;;;
2022/10/02 02:43:31;;;;;;;1.7;0.95;;;;;;;12.01;100;95721.95;;;;
2022/10/02 02:44:38;;;;;;;1.7;0.95;;;;;;;12.01;100;95721.95;;;;
2022/10/02 02:45:43;;;;;;;1.7;0.95;;;;;;;12.01;100;95721.95;;;;
2022/10/02 02:47:05;;;;;;;1.2;0.75;;;;;;;12.02;100;95721.04;;;;
2022/10/02 02:48:12;;;;;;;1.2;0.75;;;;;;;12.02;100;95721.04;;;;
2022/10/02 02:49:19;;;;;;;1.2;0.75;;;;;;;12.02;100;95721.04;;;;
2022/10/02 02:50:19;;;;;;;1.2;0.75;;;;;;;12.02;100;95721.04;;;;
2022/10/02 02:51:24;;;;;;;1.2;0.75;;;;;;;12.02;100;95721.04;;;;
2022/10/02 02:52:29;;;;;;;1.2;0.75;;;;;;;12.02;100;95721.04;;;;
2022/10/02 02:53:34;;;;;;;1.2;0.75;;;;;;;12.02;100;95721.04;;;;
2022/10/02 02:54:40;;;;;;;1.2;0.75;;;;;;;12.02;100;95721.04;;;;
2022/10/02 02:55:46;;;;;;;1.2;0.75;;;;;;;12.02;100;95721.04;;;;
2022/10/02 02:56:51;;;;;;;1.2;0.75;;;;;;;12.02;100;95721.04;;;;
2022/10/02 02:57:56;;;;;;;1.6;0.8;;;;;;;12.07;100;95707.48;;;;
2022/10/02 02:59:04;;;;;;;1.6;0.8;;;;;;;12.07;100;95707.48;;;;
2022/10/02 03:00:09;;;;;;;1.6;0.8;;;;;;;12.07;100;95707.48;;;;
2022/10/02 03:01:12;;;;;;;1.6;0.8;;;;;;;12.07;100;95707.48;;;;
2022/10/02 03:02:13;;;;;;;1.6;0.8;;;;;;;12.07;100;95707.48;;;;
2022/10/02 03:03:14;;;;;;;1.6;0.8;;;;;;;12.07;100;95707.48;;;;
2022/10/02 03:04:14;;;;;;;1.6;0.8;;;;;;;12.07;100;95707.48;;;;
2022/10/02 03:05:15;;;;;;;1.6;0.8;;;;;;;12.07;100;95707.48;;;;
2022/10/02 03:06:18;;;;;;;1.6;0.8;;;;;;;12.07;100;95707.48;;;;
2022/10/02 03:07:29;;;;;;;1.6;0.8;;;;;;;12.07;100;95707.48;;;;
2022/10/02 03:08:30;;;;;;;1.4;0.9;;;;;;;12.14;100;95722.44;;;;
2022/10/02 03:09:34;;;;;;;1.4;0.9;;;;;;;12.14;100;95722.44;;;;
2022/10/02 03:10:34;;;;;;;1.4;0.9;;;;;;;12.14;100;95722.44;;;;
2022/10/02 03:11:46;;;;;;;1.4;0.9;;;;;;;12.14;100;95722.44;;;;
2022/10/02 03:12:52;;;;;;;1.4;0.9;;;;;;;12.14;100;95722.44;;;;
2022/10/02 03:14:01;;;;;;;1.4;0.9;;;;;;;12.14;100;95722.44;;;;
2022/10/02 03:15:10;;;;;;;1.4;0.9;;;;;;;12.14;100;95722.44;;;;
2022/10/02 03:16:24;;;;;;;1.4;0.9;;;;;;;12.14;100;95722.44;;;;
2022/10/02 03:17:38;;;;;;;1.4;0.9;;;;;;;12.14;100;95722.44;;;;
2022/10/02 03:19:10;;;;;;;2.8;0.8;;;;;;;12.19;100;95720.76;;;;
2022/10/02 03:20:23;;;;;;;2.8;0.8;;;;;;;12.19;100;95720.76;;;;
2022/10/02 03:21:31;;;;;;;2.8;0.8;;;;;;;12.19;100;95720.76;;;;
2022/10/02 03:22:40;;;;;;;2.8;0.8;;;;;;;12.19;100;95720.76;;;;
2022/10/02 03:23:47;;;;;;;2.8;0.8;;;;;;;12.19;100;95720.76;;;;
2022/10/02 03:24:57;;;;;;;2.8;0.8;;;;;;;12.19;100;95720.76;;;;
2022/10/02 03:26:03;;;;;;;2.8;0.8;;;;;;;12.19;100;95720.76;;;;
2022/10/02 03:27:11;;;;;;;2.8;0.8;;;;;;;12.19;100;95720.76;;;;
2022/10/02 03:28:17;;;;;;;2.8;0.8;;;;;;;12.19;100;95720.76;;;;
2022/10/02 03:29:24;;;;;;;1.7;0.9;;;;;;;12.19;100;95717.7;;;;
2022/10/02 03:30:30;;;;;;;1.7;0.9;;;;;;;12.19;100;95717.7;;;;
2022/10/02 03:31:34;;;;;;;1.7;0.9;;;;;;;12.19;100;95717.7;;;;
2022/10/02 03:32:35;;;;;;;1.7;0.9;;;;;;;12.19;100;95717.7;;;;
2022/10/02 03:33:39;;;;;;;1.7;0.9;;;;;;;12.19;100;95717.7;;;;
2022/10/02 03:34:41;;;;;;;1.7;0.9;;;;;;;12.19;100;95717.7;;;;
2022/10/02 03:35:41;;;;;;;1.7;0.9;;;;;;;12.19;100;95717.7;;;;
2022/10/02 03:36:43;;;;;;;1.7;0.9;;;;;;;12.19;100;95717.7;;;;
2022/10/02 03:37:45;;;;;;;1.7;0.9;;;;;;;12.19;100;95717.7;;;;
2022/10/02 03:38:50;;;;;;;1.7;0.9;;;;;;;12.19;100;95717.7;;;;
2022/10/02 03:39:54;;;;;;;1.7;0.9;;;;;;;12.19;100;95717.7;;;;
2022/10/02 03:40:57;;;;;;;2.1;0.85;;;;;;;12.14;100;95722.81;;;;
2022/10/02 03:41:58;;;;;;;2.1;0.85;;;;;;;12.14;100;95722.81;;;;
2022/10/02 03:42:59;;;;;;;2.1;0.85;;;;;;;12.14;100;95722.81;;;;
2022/10/02 03:44:00;;;;;;;2.1;0.85;;;;;;;12.14;100;95722.81;;;;
2022/10/02 03:45:01;;;;;;;2.1;0.85;;;;;;;12.14;100;95722.81;;;;
2022/10/02 03:46:02;;;;;;;2.1;0.85;;;;;;;12.14;100;95722.81;;;;
2022/10/02 03:47:02;;;;;;;2.1;0.85;;;;;;;12.14;100;95722.81;;;;
2022/10/02 03:48:03;;;;;;;2.1;0.85;;;;;;;12.14;100;95722.81;;;;
2022/10/02 03:49:04;;;;;;;2.1;0.85;;;;;;;12.14;100;95722.81;;;;
2022/10/02 03:50:04;;;;;;;2.1;0.85;;;;;;;12.14;100;95722.81;;;;
2022/10/02 03:51:05;;;;;;;2.3;0.95;;;;;;;12.13;100;95717.22;;;;
2022/10/02 03:52:06;;;;;;;2.3;0.95;;;;;;;12.13;100;95717.22;;;;
2022/10/02 03:53:07;;;;;;;2.3;0.95;;;;;;;12.13;100;95717.22;;;;
2022/10/02 03:54:12;;;;;;;2.3;0.95;;;;;;;12.13;100;95717.22;;;;
2022/10/02 03:55:16;;;;;;;2.3;0.95;;;;;;;12.13;100;95717.22;;;;
2022/10/02 03:56:28;;;;;;;2.3;0.95;;;;;;;12.13;100;95717.22;;;;
2022/10/02 03:57:37;;;;;;;2.3;0.95;;;;;;;12.13;100;95717.22;;;;
2022/10/02 03:58:38;;;;;;;2.3;0.95;;;;;;;12.13;100;95717.22;;;;
2022/10/02 03:59:45;;;;;;;2.3;0.95;;;;;;;12.13;100;95717.22;;;;
2022/10/02 04:00:50;;;;;;;2.3;0.95;;;;;;;12.13;100;95717.22;;;;
2022/10/02 04:01:57;;;;;;;2.65;1.2;;;;;;;12.15;100;95706.32;;;;
2022/10/02 04:03:01;;;;;;;2.65;1.2;;;;;;;12.15;100;95706.32;;;;
2022/10/02 04:04:05;;;;;;;2.65;1.2;;;;;;;12.15;100;95706.32;;;;
2022/10/02 04:05:11;;;;;;;2.65;1.2;;;;;;;12.15;100;95706.32;;;;
2022/10/02 04:06:20;;;;;;;2.65;1.2;;;;;;;12.15;100;95706.32;;;;
2022/10/02 04:07:27;;;;;;;2.65;1.2;;;;;;;12.15;100;95706.32;;;;
2022/10/02 04:08:33;;;;;;;2.65;1.2;;;;;;;12.15;100;95706.32;;;;
2022/10/02 04:09:38;;;;;;;2.65;1.2;;;;;;;12.15;100;95706.32;;;;
2022/10/02 04:10:43;;;;;;;2.65;1.2;;;;;;;12.15;100;95706.32;;;;
2022/10/02 04:11:49;;;;;;;2.65;1.2;;;;;;;12.15;100;95706.32;;;;
2022/10/02 04:12:57;;;;;;;2;1.05;;;;;;;12.12;100;95708.07;;;;
2022/10/02 04:14:06;;;;;;;2;1.05;;;;;;;12.12;100;95708.07;;;;
2022/10/02 04:15:15;;;;;;;2;1.05;;;;;;;12.12;100;95708.07;;;;
2022/10/02 04:16:20;;;;;;;2;1.05;;;;;;;12.12;100;95708.07;;;;
2022/10/02 04:17:28;;;;;;;2;1.05;;;;;;;12.12;100;95708.07;;;;
2022/10/02 04:18:37;;;;;;;2;1.05;;;;;;;12.12;100;95708.07;;;;
2022/10/02 04:19:45;;;;;;;2;1.05;;;;;;;12.12;100;95708.07;;;;
2022/10/02 04:20:51;;;;;;;2;1.05;;;;;;;12.12;100;95708.07;;;;
2022/10/02 04:21:56;;;;;;;2;1.05;;;;;;;12.12;100;95708.07;;;;
2022/10/02 04:23:01;;;;;;;2.85;1;;;;;;;12.1;100;95706.23;;;;
2022/10/02 04:24:08;;;;;;;2.85;1;;;;;;;12.1;100;95706.23;;;;
2022/10/02 04:25:17;;;;;;;2.85;1;;;;;;;12.1;100;95706.23;;;;
2022/10/02 04:26:20;;;;;;;2.85;1;;;;;;;12.1;100;95706.23;;;;
2022/10/02 04:27:24;;;;;;;2.85;1;;;;;;;12.1;100;95706.23;;;;
2022/10/02 04:28:34;;;;;;;2.85;1;;;;;;;12.1;100;95706.23;;;;
2022/10/02 04:29:39;;;;;;;2.85;1;;;;;;;12.1;100;95706.23;;;;
2022/10/02 04:30:44;;;;;;;2.85;1;;;;;;;12.1;100;95706.23;;;;
2022/10/02 04:31:44;;;;;;;2.85;1;;;;;;;12.1;100;95706.23;;;;
2022/10/02 04:32:50;;;;;;;2.85;1;;;;;;;12.1;100;95706.23;;;;
2022/10/02 04:33:51;;;;;;;1.8;0.85;;;;;;;12.12;100;95702.86;;;;
2022/10/02 04:34:51;;;;;;;1.8;0.85;;;;;;;12.12;100;95702.86;;;;
2022/10/02 04:35:53;;;;;;;1.8;0.85;;;;;;;12.12;100;95702.86;;;;
2022/10/02 04:37:06;;;;;;;1.8;0.85;;;;;;;12.12;100;95702.86;;;;
2022/10/02 04:38:30;;;;;;;1.8;0.85;;;;;;;12.12;100;95702.86;;;;
2022/10/02 04:39:47;;;;;;;1.8;0.85;;;;;;;12.12;100;95702.86;;;;
2022/10/02 04:41:02;;;;;;;1.8;0.85;;;;;;;12.12;100;95702.86;;;;
2022/10/02 04:42:19;;;;;;;1.8;0.85;;;;;;;12.12;100;95702.86;;;;
2022/10/02 04:43:31;;;;;;;1.8;0.85;;;;;;;12.12;100;95702.86;;;;
2022/10/02 04:44:47;;;;;;;2.7;1.05;;;;;;;12.12;100;95701.03;;;;
2022/10/02 04:46:05;;;;;;;2.7;1.05;;;;;;;12.12;100;95701.03;;;;
2022/10/02 04:47:18;;;;;;;2.7;1.05;;;;;;;12.12;100;95701.03;;;;
2022/10/02 04:48:36;;;;;;;2.7;1.05;;;;;;;12.12;100;95701.03;;;;
2022/10/02 04:49:53;;;;;;;2.7;1.05;;;;;;;12.12;100;95701.03;;;;
2022/10/02 04:51:07;;;;;;;2.7;1.05;;;;;;;12.12;100;95701.03;;;;
2022/10/02 04:52:18;;;;;;;2.7;1.05;;;;;;;12.12;100;95701.03;;;;
2022/10/02 04:53:34;;;;;;;2.7;1.05;;;;;;;12.12;100;95701.03;;;;
2022/10/02 04:54:49;;;;;;;1.5;1;;;;;;;12.13;100;95702.65;;;;
2022/10/02 04:56:02;;;;;;;1.5;1;;;;;;;12.13;100;95702.65;;;;
2022/10/02 04:57:17;;;;;;;1.5;1;;;;;;;12.13;100;95702.65;;;;
2022/10/02 04:58:31;;;;;;;1.5;1;;;;;;;12.13;100;95702.65;;;;
2022/10/02 04:59:51;;;;;;;1.5;1;;;;;;;12.13;100;95702.65;;;;
2022/10/02 05:01:03;;;;;;;1.5;1;;;;;;;12.13;100;95702.65;;;;
2022/10/02 05:02:12;;;;;;;1.5;1;;;;;;;12.13;100;95702.65;;;;
2022/10/02 05:03:31;;;;;;;1.5;1;;;;;;;12.13;100;95702.65;;;;
2022/10/02 05:04:49;;;;;;;1.5;1;;;;;;;12.13;100;95702.65;;;;
2022/10/02 05:06:03;;;;;;;1;0.9;;;;;;;12.12;100;95689.53;;;;
2022/10/02 05:07:19;;;;;;;1;0.9;;;;;;;12.12;100;95689.53;;;;
2022/10/02 05:08:37;;;;;;;1;0.9;;;;;;;12.12;100;95689.53;;;;
2022/10/02 05:09:53;;;;;;;1;0.9;;;;;;;12.12;100;95689.53;;;;
2022/10/02 05:11:02;;;;;;;1;0.9;;;;;;;12.12;100;95689.53;;;;
2022/10/02 05:12:18;;;;;;;1;0.9;;;;;;;12.12;100;95689.53;;;;
2022/10/02 05:13:37;;;;;;;1;0.9;;;;;;;12.12;100;95689.53;;;;
2022/10/02 05:14:54;;;;;;;1;0.9;;;;;;;12.12;100;95689.53;;;;
2022/10/02 05:16:09;;;;;;;1.8;1;;;;;;;12.11;100;95702.98;;;;
2022/10/02 05:17:25;;;;;;;1.8;1;;;;;;;12.11;100;95702.98;;;;
2022/10/02 05:18:39;;;;;;;1.8;1;;;;;;;12.11;100;95702.98;;;;
2022/10/02 05:20:03;;;;;;;1.8;1;;;;;;;12.11;100;95702.98;;;;
2022/10/02 05:21:21;;;;;;;1.8;1;;;;;;;12.11;100;95702.98;;;;
2022/10/02 05:22:34;;;;;;;1.8;1;;;;;;;12.11;100;95702.98;;;;
2022/10/02 05:24:00;;;;;;;1.8;1;;;;;;;12.11;100;95702.98;;;;
2022/10/02 05:25:15;;;;;;;1.8;1;;;;;;;12.11;100;95702.98;;;;
2022/10/02 05:26:34;;;;;;;1.8;1;;;;;;;12.11;100;95702.98;;;;
2022/10/02 05:27:50;;;;;;;2.750001;1;;;;;;;12.13;100;95698.27;;;;
2022/10/02 05:29:11;;;;;;;2.750001;1;;;;;;;12.13;100;95698.27;;;;
2022/10/02 05:30:32;;;;;;;2.750001;1;;;;;;;12.13;100;95698.27;;;;
2022/10/02 05:31:44;;;;;;;2.750001;1;;;;;;;12.13;100;95698.27;;;;
2022/10/02 05:33:00;;;;;;;2.750001;1;;;;;;;12.13;100;95698.27;;;;
2022/10/02 05:34:18;;;;;;;2.750001;1;;;;;;;12.13;100;95698.27;;;;
2022/10/02 05:35:35;;;;;;;2.750001;1;;;;;;;12.13;100;95698.27;;;;
2022/10/02 05:36:51;;;;;;;2.750001;1;;;;;;;12.13;100;95698.27;;;;
2022/10/02 05:38:06;;;;;;;1.8;1.1;;;;;;;12.17;100;95717.13;;;;
2022/10/02 05:39:20;;;;;;;1.8;1.1;;;;;;;12.17;100;95717.13;;;;
2022/10/02 05:40:25;;;;;;;1.8;1.1;;;;;;;12.17;100;95717.13;;;;
2022/10/02 05:41:30;;;;;;;1.8;1.1;;;;;;;12.17;100;95717.13;;;;
2022/10/02 05:42:40;;;;;;;1.8;1.1;;;;;;;12.17;100;95717.13;;;;
2022/10/02 05:43:47;;;;;;;1.8;1.1;;;;;;;12.17;100;95717.13;;;;
2022/10/02 05:44:54;;;;;;;1.8;1.1;;;;;;;12.17;100;95717.13;;;;
2022/10/02 05:46:00;;;;;;;1.8;1.1;;;;;;;12.17;100;95717.13;;;;
2022/10/02 05:47:07;;;;;;;1.8;1.1;;;;;;;12.17;100;95717.13;;;;
2022/10/02 05:48:13;;;;;;;1.8;1.1;;;;;;;12.25;100;95697.5;;;;
2022/10/02 05:49:19;;;;;;;1.8;1.1;;;;;;;12.25;100;95697.5;;;;
2022/10/02 05:50:24;;;;;;;1.8;1.1;;;;;;;12.25;100;95697.5;;;;
2022/10/02 05:51:29;;;;;;;1.8;1.1;;;;;;;12.25;100;95697.5;;;;
2022/10/02 05:52:39;;;;;;;1.8;1.1;;;;;;;12.25;100;95697.5;;;;
2022/10/02 05:53:45;;;;;;;1.8;1.1;;;;;;;12.25;100;95697.5;;;;
2022/10/02 05:54:53;;;;;;;1.8;1.1;;;;;;;12.25;100;95697.5;;;;
2022/10/02 05:55:59;;;;;;;1.8;1.1;;;;;;;12.25;100;95697.5;;;;
2022/10/02 05:57:04;;;;;;;1.8;1.1;;;;;;;12.25;100;95697.5;;;;
2022/10/02 05:58:12;;;;;;;1.8;1.1;;;;;;;12.25;100;95697.5;;;;
2022/10/02 05:59:19;;;;;;;2.6;1.1;;;;;;;12.31;100;95693.91;;;;
2022/10/02 06:00:30;;;;;;;2.6;1.1;;;;;;;12.31;100;95693.91;;;;
2022/10/02 06:01:37;;;;;;;2.6;1.1;;;;;;;12.31;100;95693.91;;;;
2022/10/02 06:02:43;;;;;;;2.6;1.1;;;;;;;12.31;100;95693.91;;;;
2022/10/02 06:03:51;;;;;;;2.6;1.1;;;;;;;12.31;100;95693.91;;;;
2022/10/02 06:05:00;;;;;;;2.6;1.1;;;;;;;12.31;100;95693.91;;;;
2022/10/02 06:06:10;;;;;;;2.6;1.1;;;;;;;12.31;100;95693.91;;;;
2022/10/02 06:07:17;;;;;;;2.6;1.1;;;;;;;12.31;100;95693.91;;;;
2022/10/02 06:08:20;;;;;;;2.6;1.1;;;;;;;12.31;100;95693.91;;;;
2022/10/02 06:09:29;;;;;;;2.6;1.1;;;;;;;12.31;100;95693.91;;;;
2022/10/02 06:10:34;;;;;;;3.350001;1.3;;;;;;;12.35;100;95702.25;;;;
2022/10/02 06:11:40;;;;;;;3.350001;1.3;;;;;;;12.35;100;95702.25;;;;
2022/10/02 06:12:46;;;;;;;3.350001;1.3;;;;;;;12.35;100;95702.25;;;;
2022/10/02 06:13:54;;;;;;;3.350001;1.3;;;;;;;12.35;100;95702.25;;;;
2022/10/02 06:15:01;;;;;;;3.350001;1.3;;;;;;;12.35;100;95702.25;;;;
2022/10/02 06:16:07;;;;;;;3.350001;1.3;;;;;;;12.35;100;95702.25;;;;
2022/10/02 06:17:13;;;;;;;3.350001;1.3;;;;;;;12.35;100;95702.25;;;;
2022/10/02 06:18:21;;;;;;;3.350001;1.3;;;;;;;12.35;100;95702.25;;;;
2022/10/02 06:19:28;;;;;;;3.350001;1.3;;;;;;;12.35;100;95702.25;;;;
2022/10/02 06:20:33;;;;;;;2.45;1.3;;;;;;;12.36;100;95718.03;;;;
2022/10/02 06:21:39;;;;;;;2.45;1.3;;;;;;;12.36;100;95718.03;;;;
2022/10/02 06:22:45;;;;;;;2.45;1.3;;;;;;;12.36;100;95718.03;;;;
2022/10/02 06:23:52;;;;;;;2.45;1.3;;;;;;;12.36;100;95718.03;;;;
2022/10/02 06:24:57;;;;;;;2.45;1.3;;;;;;;12.36;100;95718.03;;;;
2022/10/02 06:26:05;;;;;;;2.45;1.3;;;;;;;12.36;100;95718.03;;;;
2022/10/02 06:27:11;;;;;;;2.45;1.3;;;;;;;12.36;100;95718.03;;;;
2022/10/02 06:28:16;;;;;;;2.45;1.3;;;;;;;12.36;100;95718.03;;;;
2022/10/02 06:29:23;;;;;;;2.45;1.3;;;;;;;12.36;100;95718.03;;;;
2022/10/02 06:30:30;;;;;;;2.45;1.3;;;;;;;12.36;100;95718.03;;;;
2022/10/02 06:31:36;;;;;;;2.25;1.2;;;;;;;12.47;100;95731.84;;;;
2022/10/02 06:32:43;;;;;;;2.25;1.2;;;;;;;12.47;100;95731.84;;;;
2022/10/02 06:33:52;;;;;;;2.25;1.2;;;;;;;12.47;100;95731.84;;;;
2022/10/02 06:34:52;;;;;;;2.25;1.2;;;;;;;12.47;100;95731.84;;;;
2022/10/02 06:35:53;;;;;;;2.25;1.2;;;;;;;12.47;100;95731.84;;;;
2022/10/02 06:37:12;;;;;;;2.25;1.2;;;;;;;12.47;100;95731.84;;;;
2022/10/02 06:38:27;;;;;;;2.25;1.2;;;;;;;12.47;100;95731.84;;;;
2022/10/02 06:39:41;;;;;;;2.25;1.2;;;;;;;12.47;100;95731.84;;;;
2022/10/02 06:40:54;;;;;;;2.25;1.2;;;;;;;12.47;100;95731.84;;;;
2022/10/02 06:42:03;;;;;;;3.85;1.35;;;;;;;12.56;100;95738.11;;;;
2022/10/02 06:43:16;;;;;;;3.85;1.35;;;;;;;12.56;100;95738.11;;;;
2022/10/02 06:44:34;;;;;;;3.85;1.35;;;;;;;12.56;100;95738.11;;;;
2022/10/02 06:45:44;;;;;;;3.85;1.35;;;;;;;12.56;100;95738.11;;;;
2022/10/02 06:46:56;;;;;;;3.85;1.35;;;;;;;12.56;100;95738.11;;;;
2022/10/02 06:48:11;;;;;;;3.85;1.35;;;;;;;12.56;100;95738.11;;;;
2022/10/02 06:49:24;;;;;;;3.85;1.35;;;;;;;12.56;100;95738.11;;;;
2022/10/02 06:50:38;;;;;;;3.85;1.35;;;;;;;12.56;100;95738.11;;;;
2022/10/02 06:51:47;;;;;;;3.85;1.35;;;;;;;12.56;100;95738.11;;;;
2022/10/02 06:53:01;;;;;;;3.85;1.65;;;;;;;12.57;100;95730.06;;;;
2022/10/02 06:54:11;;;;;;;3.85;1.65;;;;;;;12.57;100;95730.06;;;;
2022/10/02 06:55:25;;;;;;;3.85;1.65;;;;;;;12.57;100;95730.06;;;;
2022/10/02 06:56:40;;;;;;;3.85;1.65;;;;;;;12.57;100;95730.06;;;;
2022/10/02 06:57:56;;;;;;;3.85;1.65;;;;;;;12.57;100;95730.06;;;;
2022/10/02 06:59:13;;;;;;;3.85;1.65;;;;;;;12.57;100;95730.06;;;;
2022/10/02 07:00:27;;;;;;;3.85;1.65;;;;;;;12.57;100;95730.06;;;;
2022/10/02 07:01:34;;;;;;;3.85;1.65;;;;;;;12.57;100;95730.06;;;;
2022/10/02 07:02:46;;;;;;;3.85;1.65;;;;;;;12.57;100;95730.06;;;;
2022/10/02 07:04:11;;;;;;;3.85;1.65;;;;;;;12.57;100;95730.06;;;;
2022/10/02 07:05:23;;;;;;;3.85;1.65;;;;;;;12.57;100;95730.06;;;;
2022/10/02 07:06:45;;;;;;;3.85;1.65;;;;;;;12.57;100;95730.06;;;;